sensor_id;sensor_type;location;lat;lon;timestamp;temperature;humidity
17954;DHT22;9102;53.548;9.926;2022-12-07T00:00:35;3.80;99.90
17954;DHT22;9102;53.548;9.926;2022-12-07T00:03:02;3.90;99.90
17954;DHT22;9102;53.548;9.926;2022-12-07T00:05:30;3.90;99.90
17954;DHT22;9102;53.548;9.926;2022-12-07T00:07:58;3.90;99.90
17954;DHT22;9102;53.548;9.926;2022-12-07T00:10:25;3.90;99.90
17954;DHT22;9102;53.548;9.926;2022-12-07T00:12:51;3.90;99.90
17954;DHT22;9102;53.548;9.926;2022-12-07T00:15:19;3.90;99.90
17954;DHT22;9102;53.548;9.926;2022-12-07T00:17:45;3.90;99.90
17954;DHT22;9102;53.548;9.926;2022-12-07T00:20:12;3.90;99.90
17954;DHT22;9102;53.548;9.926;2022-12-07T00:22:39;3.90;99.90
17954;DHT22;9102;53.548;9.926;2022-12-07T00:25:07;3.90;99.90
17954;DHT22;9102;53.548;9.926;2022-12-07T00:27:34;3.90;99.90
17954;DHT22;9102;53.548;9.926;2022-12-07T00:30:01;3.90;99.90
17954;DHT22;9102;53.548;9.926;2022-12-07T00:32:28;3.90;99.90
17954;DHT22;9102;53.548;9.926;2022-12-07T00:34:55;4.00;99.90
17954;DHT22;9102;53.548;9.926;2022-12-07T00:37:22;4.00;99.90
17954;DHT22;9102;53.548;9.926;2022-12-07T00:39:48;4.00;99.90
17954;DHT22;9102;53.548;9.926;2022-12-07T00:42:17;4.00;99.90
17954;DHT22;9102;53.548;9.926;2022-12-07T00:44:43;4.00;99.90
17954;DHT22;9102;53.548;9.926;2022-12-07T00:47:10;3.90;99.90
17954;DHT22;9102;53.548;9.926;2022-12-07T00:49:37;3.90;99.90
17954;DHT22;9102;53.548;9.926;2022-12-07T00:52:04;3.90;99.90
17954;DHT22;9102;53.548;9.926;2022-12-07T00:54:31;4.00;99.90
17954;DHT22;9102;53.548;9.926;2022-12-07T00:56:58;3.90;99.90
17954;DHT22;9102;53.548;9.926;2022-12-07T00:59:26;4.00;99.90
17954;DHT22;9102;53.548;9.926;2022-12-07T01:01:53;4.00;99.90
17954;DHT22;9102;53.548;9.926;2022-12-07T01:04:20;4.10;99.90
17954;DHT22;9102;53.548;9.926;2022-12-07T01:06:46;4.00;99.90
17954;DHT22;9102;53.548;9.926;2022-12-07T01:09:14;4.10;99.90
17954;DHT22;9102;53.548;9.926;2022-12-07T01:11:41;4.00;99.90
17954;DHT22;9102;53.548;9.926;2022-12-07T01:14:09;4.00;99.90
17954;DHT22;9102;53.548;9.926;2022-12-07T01:16:38;4.00;99.90
17954;DHT22;9102;53.548;9.926;2022-12-07T01:19:05;4.00;99.90
17954;DHT22;9102;53.548;9.926;2022-12-07T01:21:34;4.00;99.90
17954;DHT22;9102;53.548;9.926;2022-12-07T01:24:03;3.90;99.90
17954;DHT22;9102;53.548;9.926;2022-12-07T01:26:30;4.00;99.90
17954;DHT22;9102;53.548;9.926;2022-12-07T01:28:57;4.00;99.90
17954;DHT22;9102;53.548;9.926;2022-12-07T01:31:26;4.00;99.90
17954;DHT22;9102;53.548;9.926;2022-12-07T01:33:56;4.00;99.90
17954;DHT22;9102;53.548;9.926;2022-12-07T01:36:25;4.00;99.90
17954;DHT22;9102;53.548;9.926;2022-12-07T01:38:55;4.00;99.90
17954;DHT22;9102;53.548;9.926;2022-12-07T01:41:23;4.10;99.90
17954;DHT22;9102;53.548;9.926;2022-12-07T01:44:13;4.10;99.90
17954;DHT22;9102;53.548;9.926;2022-12-07T01:46:42;4.10;99.90
17954;DHT22;9102;53.548;9.926;2022-12-07T01:49:14;4.10;99.90
17954;DHT22;9102;53.548;9.926;2022-12-07T01:51:43;4.00;99.90
17954;DHT22;9102;53.548;9.926;2022-12-07T01:54:11;4.00;99.90
17954;DHT22;9102;53.548;9.926;2022-12-07T01:56:40;4.00;99.90
17954;DHT22;9102;53.548;9.926;2022-12-07T01:59:08;4.00;99.90
17954;DHT22;9102;53.548;9.926;2022-12-07T02:01:35;3.90;99.90
17954;DHT22;9102;53.548;9.926;2022-12-07T02:04:02;4.00;99.90
17954;DHT22;9102;53.548;9.926;2022-12-07T02:06:30;3.90;99.90
17954;DHT22;9102;53.548;9.926;2022-12-07T02:08:57;3.90;99.90
17954;DHT22;9102;53.548;9.926;2022-12-07T02:11:24;3.80;99.90
17954;DHT22;9102;53.548;9.926;2022-12-07T02:13:51;3.80;99.90
17954;DHT22;9102;53.548;9.926;2022-12-07T02:16:29;3.70;99.90
17954;DHT22;9102;53.548;9.926;2022-12-07T02:19:21;3.70;99.90
17954;DHT22;9102;53.548;9.926;2022-12-07T02:21:59;3.60;99.90
17954;DHT22;9102;53.548;9.926;2022-12-07T02:24:45;3.60;99.90
17954;DHT22;9102;53.548;9.926;2022-12-07T02:27:38;3.50;99.90
17954;DHT22;9102;53.548;9.926;2022-12-07T02:30:09;3.50;99.90
17954;DHT22;9102;53.548;9.926;2022-12-07T02:32:42;3.50;99.90
17954;DHT22;9102;53.548;9.926;2022-12-07T02:35:15;3.50;99.90
17954;DHT22;9102;53.548;9.926;2022-12-07T02:37:51;3.40;99.90
17954;DHT22;9102;53.548;9.926;2022-12-07T02:40:23;3.40;99.90
17954;DHT22;9102;53.548;9.926;2022-12-07T02:42:57;3.30;99.90
17954;DHT22;9102;53.548;9.926;2022-12-07T02:45:27;3.30;99.90
17954;DHT22;9102;53.548;9.926;2022-12-07T02:47:58;3.30;99.90
17954;DHT22;9102;53.548;9.926;2022-12-07T02:50:26;3.30;99.90
17954;DHT22;9102;53.548;9.926;2022-12-07T02:52:53;3.30;99.90
17954;DHT22;9102;53.548;9.926;2022-12-07T02:55:24;3.30;99.90
17954;DHT22;9102;53.548;9.926;2022-12-07T02:58:20;3.40;99.90
17954;DHT22;9102;53.548;9.926;2022-12-07T03:01:02;3.40;99.90
17954;DHT22;9102;53.548;9.926;2022-12-07T03:03:30;3.30;99.90
17954;DHT22;9102;53.548;9.926;2022-12-07T03:06:06;3.30;99.90
17954;DHT22;9102;53.548;9.926;2022-12-07T03:08:43;3.30;99.90
17954;DHT22;9102;53.548;9.926;2022-12-07T03:11:14;3.30;99.90
17954;DHT22;9102;53.548;9.926;2022-12-07T03:17:08;3.30;99.90
17954;DHT22;9102;53.548;9.926;2022-12-07T03:19:37;3.30;99.90
17954;DHT22;9102;53.548;9.926;2022-12-07T03:22:08;3.30;99.90
17954;DHT22;9102;53.548;9.926;2022-12-07T03:24:39;3.30;99.90
17954;DHT22;9102;53.548;9.926;2022-12-07T03:27:09;3.20;99.90
17954;DHT22;9102;53.548;9.926;2022-12-07T03:29:43;3.20;99.90
17954;DHT22;9102;53.548;9.926;2022-12-07T03:32:15;3.20;99.90
17954;DHT22;9102;53.548;9.926;2022-12-07T03:34:47;3.10;99.90
17954;DHT22;9102;53.548;9.926;2022-12-07T03:37:18;3.10;99.90
17954;DHT22;9102;53.548;9.926;2022-12-07T03:39:57;3.10;99.90
17954;DHT22;9102;53.548;9.926;2022-12-07T03:42:27;3.10;99.90
17954;DHT22;9102;53.548;9.926;2022-12-07T03:44:55;3.10;99.90
17954;DHT22;9102;53.548;9.926;2022-12-07T03:47:27;3.10;99.90
17954;DHT22;9102;53.548;9.926;2022-12-07T03:50:00;3.10;99.90
17954;DHT22;9102;53.548;9.926;2022-12-07T03:52:33;3.00;99.90
17954;DHT22;9102;53.548;9.926;2022-12-07T03:55:05;3.00;99.90
17954;DHT22;9102;53.548;9.926;2022-12-07T03:57:33;3.00;99.90
17954;DHT22;9102;53.548;9.926;2022-12-07T04:00:04;3.00;99.90
17954;DHT22;9102;53.548;9.926;2022-12-07T04:02:33;2.90;99.90
17954;DHT22;9102;53.548;9.926;2022-12-07T04:05:01;2.90;99.90
17954;DHT22;9102;53.548;9.926;2022-12-07T04:07:28;2.90;99.90
17954;DHT22;9102;53.548;9.926;2022-12-07T04:09:55;2.90;99.90
17954;DHT22;9102;53.548;9.926;2022-12-07T04:12:23;2.90;99.90
17954;DHT22;9102;53.548;9.926;2022-12-07T04:14:50;2.90;99.90
17954;DHT22;9102;53.548;9.926;2022-12-07T04:17:16;2.90;99.90
17954;DHT22;9102;53.548;9.926;2022-12-07T04:19:45;2.90;99.90
17954;DHT22;9102;53.548;9.926;2022-12-07T04:22:12;2.90;99.90
17954;DHT22;9102;53.548;9.926;2022-12-07T04:24:38;2.90;99.90
17954;DHT22;9102;53.548;9.926;2022-12-07T04:27:05;2.90;99.90
17954;DHT22;9102;53.548;9.926;2022-12-07T04:32:54;2.90;99.90
17954;DHT22;9102;53.548;9.926;2022-12-07T04:35:22;2.90;99.90
17954;DHT22;9102;53.548;9.926;2022-12-07T04:37:49;2.80;99.90
17954;DHT22;9102;53.548;9.926;2022-12-07T04:40:15;2.80;99.90
17954;DHT22;9102;53.548;9.926;2022-12-07T04:42:42;2.80;99.90
17954;DHT22;9102;53.548;9.926;2022-12-07T04:45:09;2.80;99.90
17954;DHT22;9102;53.548;9.926;2022-12-07T04:47:36;2.80;99.90
17954;DHT22;9102;53.548;9.926;2022-12-07T04:50:05;2.80;99.90
17954;DHT22;9102;53.548;9.926;2022-12-07T04:52:33;2.80;99.90
17954;DHT22;9102;53.548;9.926;2022-12-07T04:55:00;2.80;99.90
17954;DHT22;9102;53.548;9.926;2022-12-07T04:57:26;2.80;99.90
17954;DHT22;9102;53.548;9.926;2022-12-07T04:59:53;2.80;99.90
17954;DHT22;9102;53.548;9.926;2022-12-07T05:02:20;2.70;99.90
17954;DHT22;9102;53.548;9.926;2022-12-07T05:04:47;2.80;99.90
17954;DHT22;9102;53.548;9.926;2022-12-07T05:10:37;2.70;99.90
17954;DHT22;9102;53.548;9.926;2022-12-07T05:13:04;2.70;99.90
17954;DHT22;9102;53.548;9.926;2022-12-07T05:15:31;2.70;99.90
17954;DHT22;9102;53.548;9.926;2022-12-07T05:17:58;2.70;99.90
17954;DHT22;9102;53.548;9.926;2022-12-07T05:20:24;2.70;99.90
17954;DHT22;9102;53.548;9.926;2022-12-07T05:22:51;2.70;99.90
17954;DHT22;9102;53.548;9.926;2022-12-07T05:25:18;2.60;99.90
17954;DHT22;9102;53.548;9.926;2022-12-07T05:27:46;2.60;99.90
17954;DHT22;9102;53.548;9.926;2022-12-07T05:30:15;2.60;99.90
17954;DHT22;9102;53.548;9.926;2022-12-07T05:32:41;2.60;99.90
17954;DHT22;9102;53.548;9.926;2022-12-07T05:35:09;2.60;99.90
17954;DHT22;9102;53.548;9.926;2022-12-07T05:37:36;2.50;99.90
17954;DHT22;9102;53.548;9.926;2022-12-07T05:40:04;2.50;99.90
17954;DHT22;9102;53.548;9.926;2022-12-07T05:42:31;2.50;99.90
17954;DHT22;9102;53.548;9.926;2022-12-07T05:44:59;2.50;99.90
17954;DHT22;9102;53.548;9.926;2022-12-07T05:47:26;2.50;99.90
17954;DHT22;9102;53.548;9.926;2022-12-07T05:49:52;2.50;99.90
17954;DHT22;9102;53.548;9.926;2022-12-07T05:52:19;2.50;99.90
17954;DHT22;9102;53.548;9.926;2022-12-07T05:54:46;2.50;99.90
17954;DHT22;9102;53.548;9.926;2022-12-07T05:57:13;2.50;99.90
17954;DHT22;9102;53.548;9.926;2022-12-07T05:59:40;2.50;99.90
17954;DHT22;9102;53.548;9.926;2022-12-07T06:02:09;2.50;99.90
17954;DHT22;9102;53.548;9.926;2022-12-07T06:04:38;2.50;99.90
17954;DHT22;9102;53.548;9.926;2022-12-07T06:10:27;2.50;99.90
17954;DHT22;9102;53.548;9.926;2022-12-07T06:12:57;2.50;99.90
17954;DHT22;9102;53.548;9.926;2022-12-07T06:15:25;2.50;99.90
17954;DHT22;9102;53.548;9.926;2022-12-07T06:17:53;2.50;99.90
17954;DHT22;9102;53.548;9.926;2022-12-07T06:20:20;2.40;99.90
17954;DHT22;9102;53.548;9.926;2022-12-07T06:22:47;2.50;99.90
17954;DHT22;9102;53.548;9.926;2022-12-07T06:25:14;2.50;99.90
17954;DHT22;9102;53.548;9.926;2022-12-07T06:27:41;2.50;99.90
17954;DHT22;9102;53.548;9.926;2022-12-07T06:30:08;2.50;99.90
17954;DHT22;9102;53.548;9.926;2022-12-07T06:32:37;2.50;99.90
17954;DHT22;9102;53.548;9.926;2022-12-07T06:35:05;2.50;99.90
17954;DHT22;9102;53.548;9.926;2022-12-07T06:37:32;2.50;99.90
17954;DHT22;9102;53.548;9.926;2022-12-07T06:39:59;2.60;99.90
17954;DHT22;9102;53.548;9.926;2022-12-07T06:42:27;2.60;99.90
17954;DHT22;9102;53.548;9.926;2022-12-07T06:44:53;2.60;99.90
17954;DHT22;9102;53.548;9.926;2022-12-07T06:47:20;2.70;99.90
17954;DHT22;9102;53.548;9.926;2022-12-07T06:49:47;2.60;99.90
17954;DHT22;9102;53.548;9.926;2022-12-07T06:52:15;2.70;99.90
17954;DHT22;9102;53.548;9.926;2022-12-07T06:54:42;2.70;99.90
17954;DHT22;9102;53.548;9.926;2022-12-07T07:00:32;2.60;99.90
17954;DHT22;9102;53.548;9.926;2022-12-07T07:03:00;2.60;99.90
17954;DHT22;9102;53.548;9.926;2022-12-07T07:05:27;2.60;99.90
17954;DHT22;9102;53.548;9.926;2022-12-07T07:07:55;2.60;99.90
17954;DHT22;9102;53.548;9.926;2022-12-07T07:10:22;2.50;99.90
17954;DHT22;9102;53.548;9.926;2022-12-07T07:12:49;2.50;99.90
17954;DHT22;9102;53.548;9.926;2022-12-07T07:15:16;2.50;99.90
17954;DHT22;9102;53.548;9.926;2022-12-07T07:17:43;2.60;99.90
17954;DHT22;9102;53.548;9.926;2022-12-07T07:20:13;2.60;99.90
17954;DHT22;9102;53.548;9.926;2022-12-07T07:22:40;2.60;99.90
17954;DHT22;9102;53.548;9.926;2022-12-07T07:25:08;2.60;99.90
17954;DHT22;9102;53.548;9.926;2022-12-07T07:27:35;2.60;99.90
17954;DHT22;9102;53.548;9.926;2022-12-07T07:30:02;2.50;99.90
17954;DHT22;9102;53.548;9.926;2022-12-07T07:32:29;2.50;99.90
17954;DHT22;9102;53.548;9.926;2022-12-07T07:34:56;2.50;99.90
17954;DHT22;9102;53.548;9.926;2022-12-07T07:40:48;2.50;99.90
17954;DHT22;9102;53.548;9.926;2022-12-07T07:43:19;2.60;99.90
17954;DHT22;9102;53.548;9.926;2022-12-07T07:45:49;2.50;99.90
17954;DHT22;9102;53.548;9.926;2022-12-07T07:48:16;2.60;99.90
17954;DHT22;9102;53.548;9.926;2022-12-07T07:50:43;2.60;99.90
17954;DHT22;9102;53.548;9.926;2022-12-07T07:53:10;2.60;99.90
17954;DHT22;9102;53.548;9.926;2022-12-07T07:55:36;2.60;99.90
17954;DHT22;9102;53.548;9.926;2022-12-07T07:58:05;2.60;99.90
17954;DHT22;9102;53.548;9.926;2022-12-07T08:00:32;2.60;99.90
17954;DHT22;9102;53.548;9.926;2022-12-07T08:02:58;2.70;99.90
17954;DHT22;9102;53.548;9.926;2022-12-07T08:05:25;2.70;99.90
17954;DHT22;9102;53.548;9.926;2022-12-07T08:07:52;2.70;99.90
17954;DHT22;9102;53.548;9.926;2022-12-07T08:10:19;2.80;99.90
17954;DHT22;9102;53.548;9.926;2022-12-07T08:12:46;2.80;99.90
17954;DHT22;9102;53.548;9.926;2022-12-07T08:15:31;2.90;99.90
17954;DHT22;9102;53.548;9.926;2022-12-07T08:17:58;2.90;99.90
17954;DHT22;9102;53.548;9.926;2022-12-07T08:20:26;3.00;99.90
17954;DHT22;9102;53.548;9.926;2022-12-07T08:22:53;3.00;99.90
17954;DHT22;9102;53.548;9.926;2022-12-07T08:25:20;3.10;99.90
17954;DHT22;9102;53.548;9.926;2022-12-07T08:27:47;3.10;99.90
17954;DHT22;9102;53.548;9.926;2022-12-07T08:30:15;3.10;99.90
17954;DHT22;9102;53.548;9.926;2022-12-07T08:32:44;3.20;99.90
17954;DHT22;9102;53.548;9.926;2022-12-07T08:35:11;3.20;99.90
17954;DHT22;9102;53.548;9.926;2022-12-07T08:37:38;3.30;99.90
17954;DHT22;9102;53.548;9.926;2022-12-07T08:40:07;3.30;99.90
17954;DHT22;9102;53.548;9.926;2022-12-07T08:42:34;3.40;99.90
17954;DHT22;9102;53.548;9.926;2022-12-07T08:45:06;3.30;99.90
17954;DHT22;9102;53.548;9.926;2022-12-07T08:50:57;3.40;99.90
17954;DHT22;9102;53.548;9.926;2022-12-07T08:53:24;3.40;99.90
17954;DHT22;9102;53.548;9.926;2022-12-07T08:55:51;3.40;99.90
17954;DHT22;9102;53.548;9.926;2022-12-07T08:58:18;3.50;99.90
17954;DHT22;9102;53.548;9.926;2022-12-07T09:00:45;3.50;99.90
17954;DHT22;9102;53.548;9.926;2022-12-07T09:03:12;3.60;99.90
17954;DHT22;9102;53.548;9.926;2022-12-07T09:05:38;3.60;99.90
17954;DHT22;9102;53.548;9.926;2022-12-07T09:08:07;3.70;99.90
17954;DHT22;9102;53.548;9.926;2022-12-07T09:10:34;3.70;99.90
17954;DHT22;9102;53.548;9.926;2022-12-07T09:13:01;3.80;99.90
17954;DHT22;9102;53.548;9.926;2022-12-07T09:15:28;3.80;99.90
17954;DHT22;9102;53.548;9.926;2022-12-07T09:17:55;3.90;99.90
17954;DHT22;9102;53.548;9.926;2022-12-07T09:20:22;3.90;99.90
17954;DHT22;9102;53.548;9.926;2022-12-07T09:22:49;3.90;99.90
17954;DHT22;9102;53.548;9.926;2022-12-07T09:25:17;3.90;99.90
17954;DHT22;9102;53.548;9.926;2022-12-07T09:27:44;3.90;99.90
17954;DHT22;9102;53.548;9.926;2022-12-07T09:30:11;4.00;99.90
17954;DHT22;9102;53.548;9.926;2022-12-07T09:32:38;4.10;99.90
17954;DHT22;9102;53.548;9.926;2022-12-07T09:35:06;4.10;99.90
17954;DHT22;9102;53.548;9.926;2022-12-07T09:37:33;4.20;99.90
17954;DHT22;9102;53.548;9.926;2022-12-07T09:40:01;4.30;99.90
17954;DHT22;9102;53.548;9.926;2022-12-07T09:42:32;4.30;99.90
17954;DHT22;9102;53.548;9.926;2022-12-07T09:45:01;4.30;99.90
17954;DHT22;9102;53.548;9.926;2022-12-07T09:47:29;4.40;99.90
17954;DHT22;9102;53.548;9.926;2022-12-07T09:50:03;4.40;99.90
17954;DHT22;9102;53.548;9.926;2022-12-07T09:52:31;4.50;99.90
17954;DHT22;9102;53.548;9.926;2022-12-07T09:54:58;4.50;99.90
17954;DHT22;9102;53.548;9.926;2022-12-07T09:57:30;4.50;99.90
17954;DHT22;9102;53.548;9.926;2022-12-07T10:00:03;4.60;99.90
17954;DHT22;9102;53.548;9.926;2022-12-07T10:02:36;4.60;99.90
17954;DHT22;9102;53.548;9.926;2022-12-07T10:05:05;4.50;99.90
17954;DHT22;9102;53.548;9.926;2022-12-07T10:07:33;4.50;99.90
17954;DHT22;9102;53.548;9.926;2022-12-07T10:10:03;4.50;99.90
17954;DHT22;9102;53.548;9.926;2022-12-07T10:12:55;4.50;99.90
17954;DHT22;9102;53.548;9.926;2022-12-07T10:15:22;4.50;99.90
17954;DHT22;9102;53.548;9.926;2022-12-07T10:21:13;4.50;99.90
17954;DHT22;9102;53.548;9.926;2022-12-07T10:23:43;4.60;99.90
17954;DHT22;9102;53.548;9.926;2022-12-07T10:26:31;4.70;99.90
17954;DHT22;9102;53.548;9.926;2022-12-07T10:29:02;4.60;99.90
17954;DHT22;9102;53.548;9.926;2022-12-07T10:31:31;4.60;99.90
17954;DHT22;9102;53.548;9.926;2022-12-07T10:33:59;4.60;99.90
17954;DHT22;9102;53.548;9.926;2022-12-07T10:36:30;4.60;99.90
17954;DHT22;9102;53.548;9.926;2022-12-07T10:39:02;4.60;99.90
17954;DHT22;9102;53.548;9.926;2022-12-07T10:41:30;4.60;99.90
17954;DHT22;9102;53.548;9.926;2022-12-07T10:43:57;4.60;99.90
17954;DHT22;9102;53.548;9.926;2022-12-07T10:47:03;4.60;99.90
17954;DHT22;9102;53.548;9.926;2022-12-07T10:49:55;4.60;99.90
17954;DHT22;9102;53.548;9.926;2022-12-07T10:52:34;4.70;99.90
17954;DHT22;9102;53.548;9.926;2022-12-07T10:55:16;4.70;99.90
17954;DHT22;9102;53.548;9.926;2022-12-07T10:57:56;4.70;99.90
17954;DHT22;9102;53.548;9.926;2022-12-07T11:00:30;4.70;99.90
17954;DHT22;9102;53.548;9.926;2022-12-07T11:06:10;4.80;99.90
17954;DHT22;9102;53.548;9.926;2022-12-07T11:08:51;4.80;99.90
17954;DHT22;9102;53.548;9.926;2022-12-07T11:11:26;4.80;99.90
17954;DHT22;9102;53.548;9.926;2022-12-07T11:14:05;4.80;99.90
17954;DHT22;9102;53.548;9.926;2022-12-07T11:16:48;4.80;99.90
17954;DHT22;9102;53.548;9.926;2022-12-07T11:19:50;4.90;99.90
17954;DHT22;9102;53.548;9.926;2022-12-07T11:22:20;4.80;99.90
17954;DHT22;9102;53.548;9.926;2022-12-07T11:24:56;4.80;99.90
17954;DHT22;9102;53.548;9.926;2022-12-07T11:27:33;4.80;99.90
17954;DHT22;9102;53.548;9.926;2022-12-07T11:30:15;4.80;99.90
17954;DHT22;9102;53.548;9.926;2022-12-07T11:33:01;4.70;99.90
17954;DHT22;9102;53.548;9.926;2022-12-07T11:35:37;4.70;99.90
17954;DHT22;9102;53.548;9.926;2022-12-07T11:38:11;4.70;99.90
17954;DHT22;9102;53.548;9.926;2022-12-07T11:40:40;4.70;99.90
17954;DHT22;9102;53.548;9.926;2022-12-07T11:43:15;4.80;99.90
17954;DHT22;9102;53.548;9.926;2022-12-07T11:45:46;4.80;99.90
17954;DHT22;9102;53.548;9.926;2022-12-07T11:48:17;4.80;99.90
17954;DHT22;9102;53.548;9.926;2022-12-07T11:50:48;4.80;99.90
17954;DHT22;9102;53.548;9.926;2022-12-07T11:53:22;4.70;99.90
17954;DHT22;9102;53.548;9.926;2022-12-07T11:55:57;4.80;99.90
17954;DHT22;9102;53.548;9.926;2022-12-07T11:58:42;4.70;99.90
17954;DHT22;9102;53.548;9.926;2022-12-07T12:01:24;4.70;99.90
17954;DHT22;9102;53.548;9.926;2022-12-07T12:03:57;4.70;99.90
17954;DHT22;9102;53.548;9.926;2022-12-07T12:06:27;4.80;99.90
17954;DHT22;9102;53.548;9.926;2022-12-07T12:08:58;4.90;99.90
17954;DHT22;9102;53.548;9.926;2022-12-07T12:11:48;4.90;99.90
17954;DHT22;9102;53.548;9.926;2022-12-07T12:14:41;5.00;99.90
17954;DHT22;9102;53.548;9.926;2022-12-07T12:17:36;4.90;99.90
17954;DHT22;9102;53.548;9.926;2022-12-07T12:20:17;4.90;99.90
17954;DHT22;9102;53.548;9.926;2022-12-07T12:22:52;5.00;99.90
17954;DHT22;9102;53.548;9.926;2022-12-07T12:25:22;4.90;99.90
17954;DHT22;9102;53.548;9.926;2022-12-07T12:27:50;4.90;99.90
17954;DHT22;9102;53.548;9.926;2022-12-07T12:30:30;4.90;99.90
17954;DHT22;9102;53.548;9.926;2022-12-07T12:33:04;4.80;99.90
17954;DHT22;9102;53.548;9.926;2022-12-07T12:35:34;4.80;99.90
17954;DHT22;9102;53.548;9.926;2022-12-07T12:38:24;4.90;99.90
17954;DHT22;9102;53.548;9.926;2022-12-07T12:40:52;5.00;99.90
17954;DHT22;9102;53.548;9.926;2022-12-07T12:46:47;5.10;99.90
17954;DHT22;9102;53.548;9.926;2022-12-07T12:49:35;5.10;99.90
17954;DHT22;9102;53.548;9.926;2022-12-07T12:55:22;5.10;99.90
17954;DHT22;9102;53.548;9.926;2022-12-07T12:58:25;5.00;99.90
17954;DHT22;9102;53.548;9.926;2022-12-07T13:03:55;4.90;99.90
17954;DHT22;9102;53.548;9.926;2022-12-07T13:06:35;4.90;99.90
17954;DHT22;9102;53.548;9.926;2022-12-07T13:09:04;4.90;99.90
17954;DHT22;9102;53.548;9.926;2022-12-07T13:11:35;4.90;99.90
17954;DHT22;9102;53.548;9.926;2022-12-07T13:14:40;4.90;99.90
17954;DHT22;9102;53.548;9.926;2022-12-07T13:17:08;4.80;99.90
17954;DHT22;9102;53.548;9.926;2022-12-07T13:19:56;4.80;99.90
17954;DHT22;9102;53.548;9.926;2022-12-07T13:22:48;4.80;99.90
17954;DHT22;9102;53.548;9.926;2022-12-07T13:25:27;4.80;99.90
17954;DHT22;9102;53.548;9.926;2022-12-07T13:28:02;4.80;99.90
17954;DHT22;9102;53.548;9.926;2022-12-07T13:30:44;4.80;99.90
17954;DHT22;9102;53.548;9.926;2022-12-07T13:33:12;4.80;99.90
17954;DHT22;9102;53.548;9.926;2022-12-07T13:35:41;4.90;99.90
17954;DHT22;9102;53.548;9.926;2022-12-07T13:38:25;4.90;99.90
17954;DHT22;9102;53.548;9.926;2022-12-07T13:41:11;4.90;99.90
17954;DHT22;9102;53.548;9.926;2022-12-07T13:43:52;5.00;99.90
17954;DHT22;9102;53.548;9.926;2022-12-07T13:49:48;5.10;99.90
17954;DHT22;9102;53.548;9.926;2022-12-07T13:52:17;5.00;99.90
17954;DHT22;9102;53.548;9.926;2022-12-07T13:54:46;5.00;99.90
17954;DHT22;9102;53.548;9.926;2022-12-07T13:57:14;5.00;99.90
17954;DHT22;9102;53.548;9.926;2022-12-07T13:59:43;5.00;99.90
17954;DHT22;9102;53.548;9.926;2022-12-07T14:02:21;5.00;99.90
17954;DHT22;9102;53.548;9.926;2022-12-07T14:04:49;5.00;99.90
17954;DHT22;9102;53.548;9.926;2022-12-07T14:07:22;4.90;99.90
17954;DHT22;9102;53.548;9.926;2022-12-07T14:09:57;4.80;99.90
17954;DHT22;9102;53.548;9.926;2022-12-07T14:12:26;4.80;99.90
17954;DHT22;9102;53.548;9.926;2022-12-07T14:14:56;4.70;99.90
17954;DHT22;9102;53.548;9.926;2022-12-07T14:17:25;4.60;99.90
17954;DHT22;9102;53.548;9.926;2022-12-07T14:19:54;4.70;99.90
17954;DHT22;9102;53.548;9.926;2022-12-07T14:22:27;4.60;99.90
17954;DHT22;9102;53.548;9.926;2022-12-07T14:25:17;4.60;99.90
17954;DHT22;9102;53.548;9.926;2022-12-07T14:31:11;4.60;99.90
17954;DHT22;9102;53.548;9.926;2022-12-07T14:33:39;4.50;99.90
17954;DHT22;9102;53.548;9.926;2022-12-07T14:36:07;4.40;99.90
17954;DHT22;9102;53.548;9.926;2022-12-07T14:38:35;4.40;99.90
17954;DHT22;9102;53.548;9.926;2022-12-07T14:41:03;4.30;99.90
17954;DHT22;9102;53.548;9.926;2022-12-07T14:43:48;4.30;99.90
17954;DHT22;9102;53.548;9.926;2022-12-07T14:46:16;4.30;99.90
17954;DHT22;9102;53.548;9.926;2022-12-07T14:48:43;4.20;99.90
17954;DHT22;9102;53.548;9.926;2022-12-07T14:51:12;4.20;99.90
17954;DHT22;9102;53.548;9.926;2022-12-07T14:53:40;4.10;99.90
17954;DHT22;9102;53.548;9.926;2022-12-07T14:56:07;4.00;99.90
17954;DHT22;9102;53.548;9.926;2022-12-07T14:58:35;4.00;99.90
17954;DHT22;9102;53.548;9.926;2022-12-07T15:01:01;3.90;99.90
17954;DHT22;9102;53.548;9.926;2022-12-07T15:03:30;3.90;99.90
17954;DHT22;9102;53.548;9.926;2022-12-07T15:05:57;3.90;99.90
17954;DHT22;9102;53.548;9.926;2022-12-07T15:08:24;3.80;99.90
17954;DHT22;9102;53.548;9.926;2022-12-07T15:10:51;3.80;99.90
17954;DHT22;9102;53.548;9.926;2022-12-07T15:13:18;3.80;99.90
17954;DHT22;9102;53.548;9.926;2022-12-07T15:16:02;3.80;99.90
17954;DHT22;9102;53.548;9.926;2022-12-07T15:18:30;3.80;99.90
17954;DHT22;9102;53.548;9.926;2022-12-07T15:20:57;3.70;99.90
17954;DHT22;9102;53.548;9.926;2022-12-07T15:23:24;3.70;99.90
17954;DHT22;9102;53.548;9.926;2022-12-07T15:25:51;3.80;99.90
17954;DHT22;9102;53.548;9.926;2022-12-07T15:28:18;3.70;99.90
17954;DHT22;9102;53.548;9.926;2022-12-07T15:30:45;3.70;99.90
17954;DHT22;9102;53.548;9.926;2022-12-07T15:33:12;3.70;99.90
17954;DHT22;9102;53.548;9.926;2022-12-07T15:35:44;3.70;99.90
17954;DHT22;9102;53.548;9.926;2022-12-07T15:38:11;3.60;99.90
17954;DHT22;9102;53.548;9.926;2022-12-07T15:40:38;3.60;99.90
17954;DHT22;9102;53.548;9.926;2022-12-07T15:43:05;3.60;99.90
17954;DHT22;9102;53.548;9.926;2022-12-07T15:45:52;3.60;99.90
17954;DHT22;9102;53.548;9.926;2022-12-07T15:48:18;3.50;99.90
17954;DHT22;9102;53.548;9.926;2022-12-07T15:50:46;3.50;99.90
17954;DHT22;9102;53.548;9.926;2022-12-07T15:53:13;3.50;99.90
17954;DHT22;9102;53.548;9.926;2022-12-07T15:55:40;3.40;99.90
17954;DHT22;9102;53.548;9.926;2022-12-07T15:58:07;3.40;99.90
17954;DHT22;9102;53.548;9.926;2022-12-07T16:00:34;3.40;99.90
17954;DHT22;9102;53.548;9.926;2022-12-07T16:03:01;3.40;99.90
17954;DHT22;9102;53.548;9.926;2022-12-07T16:05:28;3.40;99.90
17954;DHT22;9102;53.548;9.926;2022-12-07T16:07:56;3.40;99.90
17954;DHT22;9102;53.548;9.926;2022-12-07T16:10:23;3.40;99.90
17954;DHT22;9102;53.548;9.926;2022-12-07T16:12:50;3.40;99.90
17954;DHT22;9102;53.548;9.926;2022-12-07T16:15:16;3.40;99.90
17954;DHT22;9102;53.548;9.926;2022-12-07T16:17:43;3.40;99.90
17954;DHT22;9102;53.548;9.926;2022-12-07T16:20:10;3.40;99.90
17954;DHT22;9102;53.548;9.926;2022-12-07T16:22:37;3.40;99.90
17954;DHT22;9102;53.548;9.926;2022-12-07T16:25:06;3.40;99.90
17954;DHT22;9102;53.548;9.926;2022-12-07T16:27:33;3.40;99.90
17954;DHT22;9102;53.548;9.926;2022-12-07T16:30:00;3.40;99.90
17954;DHT22;9102;53.548;9.926;2022-12-07T16:32:27;3.40;99.90
17954;DHT22;9102;53.548;9.926;2022-12-07T16:34:54;3.40;99.90
17954;DHT22;9102;53.548;9.926;2022-12-07T16:37:21;3.30;99.90
17954;DHT22;9102;53.548;9.926;2022-12-07T16:39:47;3.30;99.90
17954;DHT22;9102;53.548;9.926;2022-12-07T16:42:16;3.30;99.90
17954;DHT22;9102;53.548;9.926;2022-12-07T16:44:42;3.30;99.90
17954;DHT22;9102;53.548;9.926;2022-12-07T16:47:09;3.30;99.90
17954;DHT22;9102;53.548;9.926;2022-12-07T16:49:36;3.30;99.90
17954;DHT22;9102;53.548;9.926;2022-12-07T16:52:03;3.30;99.90
17954;DHT22;9102;53.548;9.926;2022-12-07T16:54:30;3.30;99.90
17954;DHT22;9102;53.548;9.926;2022-12-07T16:56:58;3.30;99.90
17954;DHT22;9102;53.548;9.926;2022-12-07T16:59:26;3.30;99.90
17954;DHT22;9102;53.548;9.926;2022-12-07T17:01:53;3.30;99.90
17954;DHT22;9102;53.548;9.926;2022-12-07T17:04:20;3.30;99.90
17954;DHT22;9102;53.548;9.926;2022-12-07T17:06:47;3.30;99.90
17954;DHT22;9102;53.548;9.926;2022-12-07T17:09:14;3.30;99.90